Time;durP1;ratioP1;P1;durP2;ratioP2;P2;SDS_P1;SDS_P2;PMS_P1;PMS_P2;Temp;Humidity;BMP_temperature;BMP_pressure;BME280_temperature;BME280_humidity;BME280_pressure;Samples;Min_cycle;Max_cycle;Signal;HPM_P1;HPM_P2
2021/07/27 00:01:26;;;;;;;3.75;2.50;;;19.00;99.90;;;;;;6689636;88;20677;-79
2021/07/27 00:11:26;;;;;;;4.97;2.35;;;18.90;99.90;;;;;;6705057;88;20314;-78
2021/07/27 00:21:27;;;;;;;4.35;2.10;;;18.90;99.90;;;;;;6705617;88;20302;-78
2021/07/27 00:31:28;;;;;;;4.07;2.47;;;18.70;99.90;;;;;;6705259;88;20190;-79
2021/07/27 00:41:29;;;;;;;3.97;2.20;;;18.70;99.90;;;;;;6707989;88;20201;-79
2021/07/27 00:51:30;;;;;;;3.08;2.03;;;18.70;99.90;;;;;;6718110;88;20185;-77
2021/07/27 01:01:31;;;;;;;5.18;2.10;;;18.70;99.90;;;;;;6713166;88;20813;-79
2021/07/27 01:11:31;;;;;;;3.60;2.33;;;18.70;99.90;;;;;;6722971;88;20196;-77
2021/07/27 01:42:25;;;;;;;3.55;1.98;;;18.70;99.90;;;;;;6692370;88;20190;-78
2021/07/27 01:52:26;;;;;;;4.85;2.22;;;18.50;99.90;;;;;;6701904;88;20216;-79
2021/07/27 02:02:26;;;;;;;3.37;2.08;;;18.50;99.90;;;;;;6703449;88;20210;-79
2021/07/27 02:12:35;;;;;;;4.40;2.40;;;18.50;99.90;;;;;;6682923;88;20218;-77
2021/07/27 02:22:37;;;;;;;3.92;2.58;;;18.30;99.90;;;;;;6699864;88;20232;-77
2021/07/27 02:32:38;;;;;;;3.85;2.30;;;18.30;99.90;;;;;;6700577;88;20198;-77
2021/07/27 02:42:38;;;;;;;4.87;2.70;;;18.30;99.90;;;;;;6689371;88;20651;-78
2021/07/27 02:52:39;;;;;;;3.63;2.37;;;18.10;99.90;;;;;;6685040;88;20190;-78
2021/07/27 03:02:45;;;;;;;4.65;2.75;;;17.90;99.90;;;;;;6685068;88;20542;-78
2021/07/27 03:12:59;;;;;;;7.62;3.03;;;17.90;99.90;;;;;;6694499;88;20795;-78
2021/07/27 03:23:00;;;;;;;5.00;2.92;;;18.00;99.90;;;;;;6702886;88;20194;-77
2021/07/27 03:33:00;;;;;;;4.85;3.03;;;18.00;99.90;;;;;;6700729;88;20221;-78
2021/07/27 03:43:01;;;;;;;5.10;3.12;;;18.10;99.90;;;;;;6703327;88;20966;-78
2021/07/27 03:53:02;;;;;;;5.40;2.80;;;18.20;99.90;;;;;;6702896;88;20243;-77
2021/07/27 04:03:07;;;;;;;6.40;3.20;;;18.20;99.90;;;;;;6702142;88;20198;-77
2021/07/27 04:13:07;;;;;;;4.20;3.03;;;18.00;99.90;;;;;;6701777;88;20291;-77
2021/07/27 04:23:08;;;;;;;5.70;3.65;;;17.90;99.90;;;;;;6703105;88;20291;-78
2021/07/27 04:33:08;;;;;;;6.18;3.37;;;17.80;99.90;;;;;;6684931;88;20641;-78
2021/07/27 04:43:09;;;;;;;6.62;3.72;;;17.90;99.90;;;;;;6703390;88;20266;-77
2021/07/27 04:53:10;;;;;;;4.72;3.28;;;18.00;99.90;;;;;;6702830;88;20197;-77
2021/07/27 05:03:10;;;;;;;7.80;3.50;;;18.20;99.90;;;;;;6700317;88;20197;-77
2021/07/27 05:13:11;;;;;;;5.90;3.70;;;18.20;99.90;;;;;;6685965;88;20231;-79
2021/07/27 05:23:11;;;;;;;5.40;3.65;;;18.20;99.90;;;;;;6701805;88;20712;-77
2021/07/27 05:33:12;;;;;;;5.43;3.65;;;18.30;99.90;;;;;;6686687;88;20663;-77
2021/07/27 05:43:12;;;;;;;9.27;3.60;;;18.40;99.90;;;;;;6701237;88;20502;-78
2021/07/27 05:53:13;;;;;;;9.07;3.80;;;18.60;99.90;;;;;;6701691;88;20252;-78
2021/07/27 06:03:13;;;;;;;5.12;3.65;;;18.70;99.90;;;;;;6702692;88;20247;-77
2021/07/27 06:13:14;;;;;;;5.90;3.67;;;18.80;99.90;;;;;;6702880;88;20288;-78
2021/07/27 06:23:14;;;;;;;5.65;3.58;;;19.20;99.90;;;;;;6722715;88;20235;-77
2021/07/27 06:33:15;;;;;;;6.00;3.47;;;19.40;99.90;;;;;;6716498;88;20235;-79
2021/07/27 06:43:16;;;;;;;5.22;3.47;;;19.50;99.90;;;;;;6710532;88;20637;-77
2021/07/27 06:53:17;;;;;;;5.05;3.28;;;19.70;99.90;;;;;;6702682;88;20200;-77
2021/07/27 07:03:17;;;;;;;5.57;3.70;;;20.10;99.90;;;;;;6703885;88;20252;-77
2021/07/27 07:13:18;;;;;;;7.40;4.00;;;20.00;99.90;;;;;;6702996;88;20340;-77
2021/07/27 07:23:20;;;;;;;6.03;3.47;;;20.60;99.90;;;;;;6702908;88;20337;-77
2021/07/27 07:33:20;;;;;;;10.50;4.00;;;20.80;99.90;;;;;;6703416;88;20223;-77
2021/07/27 07:43:21;;;;;;;6.68;4.10;;;20.70;99.90;;;;;;6703016;88;20201;-77
2021/07/27 07:53:21;;;;;;;10.68;4.35;;;21.20;99.90;;;;;;6703557;88;20692;-78
2021/07/27 08:03:22;;;;;;;6.43;4.15;;;21.40;99.90;;;;;;6703634;88;20264;-78
2021/07/27 08:13:22;;;;;;;7.30;4.07;;;21.80;99.90;;;;;;6704882;88;20249;-77
2021/07/27 08:23:23;;;;;;;8.60;4.30;;;22.30;99.90;;;;;;6702509;88;20571;-77
2021/07/27 08:33:23;;;;;;;7.62;4.32;;;22.30;99.90;;;;;;6702710;88;20230;-77
2021/07/27 08:43:24;;;;;;;8.98;4.47;;;22.80;99.90;;;;;;6703143;88;20681;-78
2021/07/27 08:53:25;;;;;;;9.13;4.75;;;23.00;99.90;;;;;;6701928;88;20625;-77
2021/07/27 09:03:26;;;;;;;8.67;5.37;;;23.90;99.90;;;;;;6700518;88;20190;-77
2021/07/27 09:13:33;;;;;;;7.25;4.97;;;24.00;99.90;;;;;;6701798;88;20204;-78
2021/07/27 09:23:33;;;;;;;9.57;5.07;;;23.80;99.90;;;;;;6702160;88;20194;-77
2021/07/27 09:33:35;;;;;;;10.18;4.90;;;24.00;99.90;;;;;;6690300;88;20346;-77
2021/07/27 09:43:38;;;;;;;7.80;5.28;;;23.70;99.90;;;;;;6701556;88;20185;-78
2021/07/27 09:53:42;;;;;;;6.78;4.95;;;23.50;99.90;;;;;;6702710;88;20660;-77
2021/07/27 10:03:55;;;;;;;8.10;5.05;;;23.30;99.90;;;;;;6703236;88;20202;-77
2021/07/27 10:14:05;;;;;;;8.10;5.13;;;23.80;99.90;;;;;;6703613;88;20192;-77
2021/07/27 10:24:23;;;;;;;9.38;4.80;;;24.30;99.90;;;;;;6703652;88;20196;-77
2021/07/27 10:34:32;;;;;;;9.98;4.85;;;25.30;99.90;;;;;;6703455;88;20215;-78
2021/07/27 10:44:36;;;;;;;7.07;4.37;;;25.90;99.90;;;;;;6703932;88;20222;-77
2021/07/27 10:54:38;;;;;;;6.32;4.12;;;27.20;99.90;;;;;;6704083;88;20700;-77
2021/07/27 11:04:39;;;;;;;6.95;4.85;;;27.30;97.50;;;;;;6703466;88;20216;-78
2021/07/27 11:14:39;;;;;;;7.72;4.32;;;26.50;98.40;;;;;;6701401;88;20240;-78
2021/07/27 11:24:40;;;;;;;5.62;4.12;;;27.60;98.10;;;;;;6701356;88;20312;-77
2021/07/27 11:34:41;;;;;;;8.00;4.68;;;28.20;97.70;;;;;;6704405;88;20150;-77
2021/07/27 11:44:43;;;;;;;8.10;4.40;;;29.10;95.70;;;;;;6719318;88;20665;-77
2021/07/27 11:54:43;;;;;;;8.07;4.20;;;28.10;96.20;;;;;;6712165;88;20213;-78
2021/07/27 12:04:44;;;;;;;6.68;4.12;;;27.40;96.40;;;;;;6720565;88;20279;-77
2021/07/27 12:14:44;;;;;;;7.28;4.40;;;27.70;95.30;;;;;;6701984;88;20733;-77
2021/07/27 12:24:45;;;;;;;7.78;4.20;;;26.90;96.20;;;;;;6700654;88;20376;-77
2021/07/27 12:34:46;;;;;;;9.32;4.68;;;26.00;96.90;;;;;;6702602;88;20971;-76
2021/07/27 12:44:47;;;;;;;8.63;3.22;;;20.40;99.90;;;;;;6700949;88;20217;-76
2021/07/27 12:54:48;;;;;;;8.47;4.67;;;18.90;99.90;;;;;;6701505;88;20189;-76
2021/07/27 13:04:48;;;;;;;8.60;4.62;;;18.20;99.90;;;;;;6705338;88;20515;-76
2021/07/27 13:14:49;;;;;;;6.78;4.20;;;18.60;99.90;;;;;;6698120;88;20210;-76
2021/07/27 13:24:50;;;;;;;8.98;4.55;;;19.00;99.90;;;;;;6697631;88;20201;-77
2021/07/27 13:34:50;;;;;;;8.23;4.40;;;19.50;99.90;;;;;;6697124;88;20198;-77
2021/07/27 13:44:51;;;;;;;7.50;4.25;;;20.00;99.90;;;;;;6696971;88;20677;-76
2021/07/27 13:54:51;;;;;;;4.95;3.33;;;20.30;99.90;;;;;;6697057;88;20206;-76
2021/07/27 14:04:52;;;;;;;8.00;4.20;;;20.20;99.90;;;;;;6697434;88;20779;-75
2021/07/27 14:14:53;;;;;;;6.23;4.10;;;20.00;99.90;;;;;;6665085;88;20598;-75
2021/07/27 14:24:53;;;;;;;7.75;4.78;;;19.90;99.90;;;;;;6697710;88;20181;-76
2021/07/27 14:34:54;;;;;;;6.68;4.25;;;20.00;99.90;;;;;;6700925;88;20227;-77
2021/07/27 14:44:55;;;;;;;7.93;4.35;;;19.80;99.90;;;;;;6708031;88;21229;-76
2021/07/27 14:54:56;;;;;;;6.82;3.60;;;19.70;99.90;;;;;;6690393;88;20227;-77
2021/07/27 15:04:56;;;;;;;4.80;3.30;;;19.50;99.90;;;;;;6708465;88;20194;-77
2021/07/27 15:14:57;;;;;;;5.78;3.15;;;19.30;99.90;;;;;;6708605;88;20284;-79
2021/07/27 15:25:00;;;;;;;4.53;2.90;;;19.10;99.90;;;;;;6711116;88;20280;-75
2021/07/27 15:35:02;;;;;;;6.10;3.35;;;19.00;99.90;;;;;;6708703;88;21002;-76
2021/07/27 15:45:04;;;;;;;6.15;3.85;;;18.70;99.90;;;;;;6704566;88;20661;-75
2021/07/27 15:55:04;;;;;;;8.27;3.80;;;18.40;99.90;;;;;;6697447;88;20225;-75
2021/07/27 16:05:05;;;;;;;7.45;4.90;;;18.50;99.90;;;;;;6697582;88;20213;-73
2021/07/27 16:15:07;;;;;;;8.18;4.20;;;18.60;99.90;;;;;;6696692;88;20356;-75
2021/07/27 16:25:08;;;;;;;6.85;4.18;;;18.90;99.90;;;;;;6696619;88;20573;-76
2021/07/27 16:35:09;;;;;;;5.80;3.92;;;18.80;99.90;;;;;;6696569;88;20324;-76
2021/07/27 16:45:10;;;;;;;5.97;4.07;;;18.90;99.90;;;;;;6696248;88;20198;-75
2021/07/27 16:55:11;;;;;;;7.60;3.97;;;18.90;99.90;;;;;;6696846;88;20209;-75
2021/07/27 17:05:15;;;;;;;7.85;4.43;;;18.70;99.90;;;;;;6704643;88;20197;-75
2021/07/27 17:15:16;;;;;;;7.18;4.47;;;18.60;99.90;;;;;;6704088;88;20185;-75
2021/07/27 17:25:17;;;;;;;9.30;4.60;;;18.40;99.90;;;;;;6708955;88;20276;-74
2021/07/27 17:35:17;;;;;;;9.02;4.55;;;18.50;99.90;;;;;;6703982;88;20200;-75
2021/07/27 17:45:18;;;;;;;7.93;4.68;;;18.50;99.90;;;;;;6695449;88;20190;-78
2021/07/27 17:55:20;;;;;;;9.07;5.13;;;18.60;99.90;;;;;;6695242;88;20220;-75
2021/07/27 18:05:20;;;;;;;7.65;5.25;;;18.50;99.90;;;;;;6695384;88;20693;-75
2021/07/27 18:15:21;;;;;;;8.47;4.60;;;18.30;99.90;;;;;;6698385;88;20219;-74
2021/07/27 18:25:21;;;;;;;7.40;4.57;;;18.10;99.90;;;;;;6698553;88;20510;-75
2021/07/27 18:35:22;;;;;;;7.72;4.93;;;18.10;99.90;;;;;;6698083;88;20189;-75
2021/07/27 18:45:23;;;;;;;7.30;4.83;;;17.90;99.90;;;;;;6697951;88;20194;-75
2021/07/27 18:55:23;;;;;;;7.57;4.53;;;17.80;99.90;;;;;;6697355;88;20654;-76
2021/07/27 19:05:24;;;;;;;6.93;4.75;;;17.70;99.90;;;;;;6697191;88;20214;-76
2021/07/27 19:15:24;;;;;;;6.00;4.45;;;17.70;99.90;;;;;;6697132;88;20758;-75
2021/07/27 19:25:27;;;;;;;8.20;4.95;;;17.80;99.90;;;;;;6696839;88;20553;-75
2021/07/27 19:35:28;;;;;;;10.38;5.40;;;17.70;99.90;;;;;;6696947;88;20194;-75
2021/07/27 19:45:36;;;;;;;8.47;6.00;;;17.70;99.90;;;;;;6700186;88;20223;-75
2021/07/27 19:55:37;;;;;;;9.07;5.80;;;17.50;99.90;;;;;;6704633;88;20616;-75
2021/07/27 20:05:38;;;;;;;10.55;5.97;;;17.50;99.90;;;;;;6704462;88;20201;-76
2021/07/27 20:15:39;;;;;;;12.73;6.47;;;17.40;99.90;;;;;;6700743;88;20178;-77
2021/07/27 20:25:40;;;;;;;9.52;6.50;;;17.40;99.90;;;;;;6700325;88;20186;-77
2021/07/27 20:35:40;;;;;;;11.18;6.37;;;17.30;99.90;;;;;;6700752;88;20190;-77
2021/07/27 20:45:41;;;;;;;11.53;7.10;;;17.20;99.90;;;;;;6698961;88;20194;-77
2021/07/27 20:55:42;;;;;;;13.20;7.25;;;17.10;99.90;;;;;;6698728;88;20667;-76
2021/07/27 21:05:42;;;;;;;11.48;7.60;;;17.00;99.90;;;;;;6699523;88;20239;-77
2021/07/27 21:15:43;;;;;;;10.73;7.22;;;17.10;99.90;;;;;;6649682;88;20764;-76
2021/07/27 21:25:45;;;;;;;12.00;6.50;;;17.00;99.90;;;;;;6700776;88;20243;-77
2021/07/27 21:35:46;;;;;;;9.13;5.85;;;16.90;99.90;;;;;;6699686;88;20174;-77
2021/07/27 21:45:47;;;;;;;9.27;6.12;;;16.80;99.90;;;;;;6703735;88;20201;-77
2021/07/27 21:55:47;;;;;;;9.82;5.37;;;16.90;99.90;;;;;;6706507;88;20199;-77
2021/07/27 22:05:48;;;;;;;9.63;6.00;;;16.80;99.90;;;;;;6706214;88;20338;-77
2021/07/27 22:15:48;;;;;;;12.77;6.12;;;16.70;99.90;;;;;;6700542;88;20289;-78
2021/07/27 22:25:49;;;;;;;10.40;6.47;;;16.60;99.90;;;;;;6706283;88;20201;-77
2021/07/27 22:35:49;;;;;;;10.38;6.70;;;16.50;99.90;;;;;;6710645;88;20195;-76
2021/07/27 22:45:50;;;;;;;9.32;5.97;;;16.50;99.90;;;;;;6717923;88;20201;-77
2021/07/27 22:55:50;;;;;;;12.23;6.28;;;16.60;99.90;;;;;;6716854;88;20166;-75
2021/07/27 23:05:51;;;;;;;11.12;6.35;;;16.60;99.90;;;;;;6716379;88;20782;-78
2021/07/27 23:15:51;;;;;;;9.23;6.82;;;16.40;99.90;;;;;;6644724;88;20640;-78
2021/07/27 23:25:55;;;;;;;9.77;7.05;;;16.40;99.90;;;;;;6681885;88;20199;-78
2021/07/27 23:35:56;;;;;;;10.68;6.43;;;16.30;99.90;;;;;;6701889;88;20191;-77
2021/07/27 23:45:56;;;;;;;11.45;5.85;;;16.20;99.90;;;;;;6702153;88;20217;-78
2021/07/27 23:55:57;;;;;;;10.85;6.05;;;16.10;99.90;;;;;;6684297;88;20206;-77
